^^
Meteo Knjazevac Station Historical Data
Daily Summary for February 4, 2021 Units:  English    Metric   Both
Daily Weekly Monthly Yearly Custom
  High: Low: Average:
Temperature: 66.4 °F 57.9 °F 61.5 °F
Dew Point: 59.7 °F 55.2 °F 57.3 °F
Humidity: 91% 79% 86%
Wind Speed: 2mph 0mph 0.5mph
Wind Gust: 4mph - -
Wind- - West
Pressure: 30.08 in 30.03 in -
Precipitation: 0.00 in    
Historical Graphs
 
 
Tabular Data for February 4, 2021
Time Temperature Dew Point Pressure Wind Wind Speed Wind Gust Humidity Rainfall Rate (Hourly) solar Conditions
00:00 66.4 °F 59.7 °F 30.03 in Calm   2 mph 79% 0.00 in 0 W/m2
00:10 66.1 °F 59.7 °F 30.03 in Calm   2 mph 80% 0.00 in 0 W/m2
00:20 65.5 °F 59.2 °F 30.03 in Calm   2 mph 80% 0.00 in 0 W/m2
00:30 65.1 °F 58.8 °F 30.03 in WNW 1 mph 2 mph 80% 0.00 in 0 W/m2
00:40 64.9 °F 59 °F 30.03 in WNW 1 mph 2 mph 81% 0.00 in 0 W/m2
00:50 64.8 °F 58.4 °F 30.03 in West 1 mph 3 mph 80% 0.00 in 0 W/m2
01:00 64.6 °F 58.6 °F 30.03 in WSW 1 mph 3 mph 81% 0.00 in 0 W/m2
01:10 64.2 °F 58.9 °F 30.03 in West 1 mph 2 mph 83% 0.00 in 0 W/m2
01:20 63.9 °F 58.6 °F 30.03 in Calm   2 mph 83% 0.00 in 0 W/m2
01:30 63.5 °F 58.2 °F 30.03 in Calm   2 mph 83% 0.00 in 0 W/m2
01:40 63.1 °F 58.2 °F 30.04 in West 1 mph 2 mph 84% 0.00 in 0 W/m2
01:50 62.8 °F 58.2 °F 30.04 in WSW 1 mph 3 mph 85% 0.00 in 0 W/m2
02:00 62.8 °F 57.9 °F 30.04 in Calm   3 mph 84% 0.00 in 0 W/m2
02:10 62.8 °F 58.2 °F 30.04 in Calm     85% 0.00 in 0 W/m2
02:20 62.6 °F 58 °F 30.04 in Calm     85% 0.00 in 0 W/m2
02:30 62.4 °F 57.8 °F 30.04 in Calm   2 mph 85% 0.00 in 0 W/m2
02:40 61.9 °F 57.3 °F 30.04 in WSW 1 mph 2 mph 85% 0.00 in 0 W/m2
02:50 61.5 °F 57.3 °F 30.04 in Calm   3 mph 86% 0.00 in 0 W/m2
03:00 61.2 °F 56.9 °F 30.04 in WSW 1 mph 2 mph 86% 0.00 in 0 W/m2
03:10 60.8 °F 57.2 °F 30.04 in West 2 mph 3 mph 88% 0.00 in 0 W/m2
03:20 60.8 °F 57.2 °F 30.04 in WNW 1 mph 3 mph 88% 0.00 in 0 W/m2
03:30 60.8 °F 57.2 °F 30.04 in WNW 1 mph 3 mph 88% 0.00 in 0 W/m2
03:40 60.6 °F 57 °F 30.05 in Calm   1 mph 88% 0.00 in 0 W/m2
03:50 60.6 °F 57 °F 30.05 in Calm   1 mph 88% 0.00 in 0 W/m2
04:00 60.4 °F 56.9 °F 30.05 in WNW 1 mph 2 mph 88% 0.00 in 0 W/m2
04:10 60.3 °F 57 °F 30.05 in Calm   2 mph 89% 0.00 in 0 W/m2
04:20 60.1 °F 56.5 °F 30.05 in Calm   2 mph 88% 0.00 in 0 W/m2
04:30 59.9 °F 56.6 °F 30.05 in Calm   2 mph 89% 0.00 in 0 W/m2
04:40 59.5 °F 56.3 °F 30.06 in WNW 1 mph 2 mph 89% 0.00 in 0 W/m2
04:50 59.5 °F 56.3 °F 30.06 in West 1 mph 2 mph 89% 0.00 in 0 W/m2
05:00 59.5 °F 56.6 °F 30.06 in Calm   2 mph 90% 0.00 in 0 W/m2
05:10 59.4 °F 56.4 °F 30.06 in NW 1 mph 4 mph 90% 0.00 in 0 W/m2
05:20 59.4 °F 56.1 °F 30.06 in WNW 1 mph 2 mph 89% 0.00 in 0 W/m2
05:30 59 °F 55.8 °F 30.06 in Calm     89% 0.00 in 6 W/m2
05:40 58.6 °F 55.7 °F 30.06 in West 1 mph 2 mph 90% 0.00 in 14 W/m2
05:50 58.1 °F 55.2 °F 30.06 in Calm   3 mph 90% 0.01 in 23 W/m2
06:00 57.9 °F 55.3 °F 30.07 in WNW 1 mph 2 mph 91% 0.00 in 33 W/m2
06:10 57.9 °F 55.3 °F 30.07 in Calm   2 mph 91% 0.00 in 57 W/m2
06:20 57.9 °F 55.3 °F 30.08 in Calm   2 mph 91% 0.00 in 77 W/m2
06:30 58.1 °F 55.5 °F 30.08 in NW 1 mph 2 mph 91% 0.00 in 101 W/m2
Knjazevac, Serbia
Compliments of Weather Underground - 2 mb